• Join FlightAware (Why Join?)
  • Login
  • US Flag 
10:39AM EDT


 

Airport Tracker/Info


-or-


 

Live Flight TrackerFlight Track Log ✈ UAL4604 ✈ 28-Apr-2013 ✈ KRIC - KIAH

Flight Track Log - Related Links

Times and Time Zones

All times are in EDT time to prevent confusion due to time zone crossing. See the UAL4604 flight status page for this flight to view local times or setup timezone preferences in your user account.

Time Position Orientation Groundspeed Altitude Reporting Facility
EDT Latitude Longitude Course Direction KTS MPH feet Rate Location/Type
05:23PM 37.4667 -77.3000 212° Southwest 188 216 1,300  Level Potomac TRACON
05:24PM 37.4308 -77.3283 212° Southwest 190 219 3,500 2,040 Climbing Washington Center
05:25PM 37.4211 -77.4144 262° West 177 204 5,600 2,460 Climbing Washington Center
05:26PM 37.4136 -77.5006 264° West 222 255 8,500 2,400 Climbing Washington Center
05:27PM 37.4036 -77.5919 262° West 250 288 10,600 1,860 Climbing Washington Center
05:28PM 37.3914 -77.7039 262° West 287 330 12,200 1,500 Climbing Washington Center
05:29PM 37.3789 -77.8186 262° West 313 360 13,600 1,620 Climbing Washington Center
05:30PM 37.3661 -77.9331 262° West 325 374 15,600 1,680 Climbing Washington Center
05:31PM 37.3453 -78.0422 257° West 331 381 17,000 1,380 Climbing Washington Center
05:32PM 37.3200 -78.1564 254° West 331 381 18,400 1,380 Climbing Washington Center
05:33PM 37.3008 -78.2603 257° West 331 381 19,900 780 Climbing Washington Center
05:34PM 37.2817 -78.3797 259° West 344 396 20,000 540 Climbing Washington Center
05:35PM 37.2800 -78.5283 269° West 369 425 21,000 1,260 Climbing Washington Center
05:36PM 37.2747 -78.6561 267° West 376 433 22,600 1,620 Climbing Washington Center
05:37PM 37.2694 -78.7836 267° West 376 433 24,300 1,620 Climbing Washington Center
05:38PM 37.2661 -78.9061 268° West 364 419 25,900 1,320 Climbing Washington Center
05:39PM 37.2631 -79.0106 268° West 353 406 27,000 540 Climbing Washington Center
05:40PM 37.2575 -79.1356 267° West 347 399 27,000  Level Washington Center
05:41PM 37.2514 -79.2683 267° West 366 421 27,000  Level Washington Center
05:42PM 37.2367 -79.4006 262° West 379 436 27,000 180 Level Washington Center
05:43PM 37.2217 -79.5408 262° West 393 452 27,400 840 Climbing Washington Center
05:44PM 37.2050 -79.6678 261° West 393 452 28,800 1,500 Climbing Washington Center
05:45PM 37.1897 -79.8050 262° West 374 430 30,500 1,560 Climbing Washington Center
05:46PM 37.1794 -79.9192 264° West 361 415 32,000 1,380 Climbing Washington Center
05:47PM 37.1647 -80.0331 261° West 344 396 33,400 1,080 Climbing Washington Center
05:49PM 37.1319 -80.3133 262° West 280 322 36,000 660 Climbing Atlanta Center
05:50PM 37.1186 -80.4233 261° West 296 341 36,000  Level Atlanta Center
05:51PM 37.1050 -80.5333 261° West 315 362 36,000  Level Atlanta Center
05:52PM 37.0917 -80.6511 262° West 329 379 36,000  Level Atlanta Center
05:53PM 37.0697 -80.7586 256° West 347 399 36,000  Level Atlanta Center
05:54PM 37.0289 -80.8747 246° West 357 411 36,000  Level Atlanta Center
05:55PM 36.9878 -80.9856 245° Southwest 362 417 36,000  Level Atlanta Center
05:56PM 36.9489 -81.0961 246° West 362 417 36,000  Level Atlanta Center
05:57PM 36.9058 -81.2144 246° West 356 410 36,000  Level Atlanta Center
05:58PM 36.8667 -81.3222 246° West 349 402 36,000  Level Atlanta Center
05:59PM 36.8292 -81.4297 246° West 343 395 36,000  Level Atlanta Center
06:00PM 36.7897 -81.5350 245° Southwest 343 395 36,000  Level Atlanta Center
06:01PM 36.7583 -81.6369 249° West 331 381 36,000  Level Atlanta Center
06:02PM 36.7167 -81.7444 244° Southwest 331 381 36,000  Level Atlanta Center
06:03PM 36.6769 -81.8517 245° Southwest 341 392 36,000  Level Atlanta Center
06:04PM 36.6392 -81.9586 246° West 341 392 36,000  Level Atlanta Center
06:05PM 36.6033 -82.0578 246° West 341 392 36,000  Level Atlanta Center
06:06PM 36.5611 -82.1650 244° Southwest 341 392 36,000  Level Atlanta Center
06:07PM 36.5211 -82.2717 245° Southwest 341 392 36,000  Level Atlanta Center
06:08PM 36.4808 -82.3811 245° Southwest 341 392 36,000  Level Atlanta Center
06:09PM 36.4406 -82.4878 245° Southwest 346 398 36,000  Level Atlanta Center
06:10PM 36.3981 -82.5994 245° Southwest 346 398 36,000  Level Atlanta Center
06:11PM 36.3556 -82.7086 244° Southwest 346 398 36,000  Level Atlanta Center
06:12PM 36.3150 -82.8200 246° West 346 398 36,000  Level Atlanta Center
06:13PM 36.2744 -82.9289 245° Southwest 346 398 36,000  Level Atlanta Center
06:14PM 36.2294 -83.0478 245° Southwest 346 398 36,000  Level Atlanta Center
06:15PM 36.1864 -83.1589 244° Southwest 346 398 36,000  Level Atlanta Center
06:16PM 36.1456 -83.2700 246° West 356 410 36,000  Level Atlanta Center
06:17PM 36.1025 -83.3808 244° Southwest 356 410 36,000  Level Atlanta Center
06:18PM 36.0592 -83.4917 244° Southwest 363 418 36,000  Level Atlanta Center
06:19PM 36.0219 -83.5944 246° West 363 418 36,000  Level Atlanta Center
06:20PM 35.9786 -83.7053 244° Southwest 363 418 36,000  Level Atlanta Center
06:21PM 35.9350 -83.8181 244° Southwest 363 418 36,000  Level Atlanta Center
06:22PM 35.8831 -83.9261 239° Southwest 363 418 36,000  Level Atlanta Center
06:23PM 35.8164 -84.0208 229° Southwest 369 425 36,000  Level Atlanta Center
06:24PM 35.7453 -84.1181 228° Southwest 369 425 36,000  Level Atlanta Center
06:25PM 35.6786 -84.2100 228° Southwest 374 430 36,000  Level Atlanta Center
06:26PM 35.6094 -84.3069 229° Southwest 379 436 36,000  Level Atlanta Center
06:27PM 35.5425 -84.4011 229° Southwest 379 436 36,000  Level Atlanta Center
06:28PM 35.4711 -84.4978 228° Southwest 379 436 36,000  Level Atlanta Center
06:29PM 35.4019 -84.5942 229° Southwest 384 442 36,000  Level Atlanta Center
06:30PM 35.3328 -84.6906 229° Southwest 384 442 36,000  Level Atlanta Center
06:31PM 35.2569 -84.7967 229° Southwest 384 442 36,000  Level Atlanta Center
06:32PM 35.1833 -84.8925 227° Southwest 384 442 36,000  Level Atlanta Center
06:33PM 35.1136 -84.9883 228° Southwest 384 442 36,000  Level Atlanta Center
06:34PM 35.0442 -85.0839 228° Southwest 384 442 36,000  Level Atlanta Center
06:35PM 34.9744 -85.1794 228° Southwest 384 442 36,000  Level Atlanta Center
06:36PM 34.9003 -85.2797 228° Southwest 384 442 36,000  Level Atlanta Center
06:37PM 34.8306 -85.3747 228° Southwest 384 442 36,000  Level Atlanta Center
06:38PM 34.7586 -85.4697 227° Southwest 384 442 36,000  Level Atlanta Center
06:39PM 34.6864 -85.5644 227° Southwest 384 442 36,000  Level Atlanta Center
06:40PM 34.6142 -85.6617 228° Southwest 384 442 36,000  Level Atlanta Center
06:41PM 34.5419 -85.7586 228° Southwest 384 442 36,000  Level Atlanta Center
06:42PM 34.4697 -85.8503 226° Southwest 384 442 36,000  Level Atlanta Center
06:43PM 34.3994 -85.9494 229° Southwest 384 442 36,000  Level Atlanta Center
06:44PM 34.3269 -86.0411 226° Southwest 384 442 36,000  Level Atlanta Center
06:45PM 34.2522 -86.1397 228° Southwest 384 442 36,000  Level Atlanta Center
06:46PM 34.1900 -86.2436 234° Southwest 384 442 36,000  Level Atlanta Center
06:47PM 34.1419 -86.3606 244° Southwest 384 442 36,000  Level Atlanta Center
06:48PM 34.0958 -86.4769 244° Southwest 384 442 36,000  Level Atlanta Center
06:49PM 34.0472 -86.5986 244° Southwest 390 449 36,000  Level Atlanta Center
06:50PM 33.9989 -86.7122 243° Southwest 395 455 36,000  Level Atlanta Center
06:51PM 33.9483 -86.8308 243° Southwest 395 455 36,000  Level Atlanta Center
06:52PM 33.8975 -86.9519 243° Southwest 400 460 36,000  Level Atlanta Center
06:53PM 33.8486 -87.0728 244° Southwest 400 460 36,000  Level Atlanta Center
06:56PM 33.7256 -87.3650 243° Southwest 393 452 36,000  Level Memphis Center
06:57PM 33.6761 -87.4842 244° Southwest 393 452 36,000  Level Memphis Center
06:58PM 33.6286 -87.6031 244° Southwest 393 452 36,000  Level Memphis Center
06:59PM 33.5769 -87.7217 242° Southwest 398 458 36,000  Level Memphis Center
07:00PM 33.5272 -87.8403 243° Southwest 398 458 36,000  Level Memphis Center
07:01PM 33.4775 -87.9589 243° Southwest 398 458 36,000  Level Memphis Center
07:02PM 33.4253 -88.0772 242° Southwest 398 458 36,000  Level Memphis Center
07:03PM 33.3753 -88.1956 243° Southwest 398 458 36,000  Level Memphis Center
07:04PM 33.3394 -88.2983 247° West 393 452 36,000  Level Memphis Center
07:05PM 33.2872 -88.4139 242° Southwest 393 452 36,000  Level Memphis Center
07:06PM 33.2367 -88.5267 242° Southwest 393 452 36,000  Level Memphis Center
07:07PM 33.1881 -88.6419 243° Southwest 393 452 36,000  Level Memphis Center
07:08PM 33.1375 -88.7547 242° Southwest 393 452 36,000  Level Memphis Center
07:09PM 33.0828 -88.8794 242° Southwest 388 447 36,000  Level Memphis Center
07:10PM 33.0339 -88.9869 242° Southwest 388 447 36,000  Level Memphis Center
07:11PM 32.9850 -89.0992 243° Southwest 383 441 36,000  Level Memphis Center
07:12PM 32.9381 -89.2111 243° Southwest 383 441 36,000  Level Memphis Center
07:13PM 32.8889 -89.3183 241° Southwest 383 441 36,000  Level Memphis Center
07:14PM 32.8397 -89.4300 242° Southwest 378 435 36,000  Level Memphis Center
07:15PM 32.7903 -89.5369 241° Southwest 378 435 36,000  Level Memphis Center
07:16PM 32.7408 -89.6483 242° Southwest 378 435 36,000  Level Memphis Center
07:17PM 32.6975 -89.7450 242° Southwest 373 429 36,000  Level Memphis Center
07:18PM 32.6478 -89.8539 242° Southwest 373 429 36,000  Level Memphis Center
07:19PM 32.6025 -89.9603 243° Southwest 373 429 36,000  Level Memphis Center
07:20PM 32.5525 -90.0664 241° Southwest 373 429 36,000  Level Memphis Center
07:21PM 32.5028 -90.1725 241° Southwest 373 429 36,000  Level Memphis Center
07:22PM 32.4506 -90.2736 239° Southwest 368 423 36,000  Level Memphis Center
07:23PM 32.3964 -90.3769 238° Southwest 368 423 36,000  Level Memphis Center
07:24PM 32.3378 -90.4875 238° Southwest 368 423 36,000  Level Memphis Center
07:25PM 32.2856 -90.5908 239° Southwest 368 423 36,000  Level Memphis Center
07:26PM 32.2331 -90.6889 238° Southwest 368 423 36,000  Level Memphis Center
07:27PM 32.1786 -90.7892 237° Southwest 368 423 36,000  Level Memphis Center
07:28PM 32.1225 -90.9019 240° Southwest 360 414 36,000  Level Houston Center
07:29PM 32.0697 -91.0022 238° Southwest 360 414 36,000  Level Houston Center
07:30PM 32.0056 -91.1214 238° Southwest 360 414 36,000  Level Houston Center
07:31PM 31.9533 -91.2203 238° Southwest 358 412 36,000  Level Houston Center
07:32PM 31.9000 -91.3192 238° Southwest 358 412 36,000  Level Houston Center
07:33PM 31.8469 -91.4172 238° Southwest 356 410 36,000  Level Houston Center
07:34PM 31.7942 -91.5150 238° Southwest 354 407 36,000  Level Houston Center
07:35PM 31.7417 -91.6131 238° Southwest 354 407 36,000  Level Houston Center
07:36PM 31.6886 -91.7125 238° Southwest 359 413 36,000  Level Houston Center
07:37PM 31.6242 -91.8314 238° Southwest 359 413 36,000  Level Houston Center
07:38PM 31.5697 -91.9303 237° Southwest 360 414 36,000  Level Houston Center
07:39PM 31.5114 -92.0367 237° Southwest 363 418 36,000  Level Houston Center
07:40PM 31.4544 -92.1347 236° Southwest 364 419 36,000  Level Houston Center
07:42PM 31.4014 -92.2344 238° Southwest 363 418 36,000  Level Houston Center
07:43PM 31.3467 -92.3336 237° Southwest 362 417 36,000  Level Houston Center
07:44PM 31.2922 -92.4331 237° Southwest 364 419 36,000  Level Houston Center
07:45PM 31.2383 -92.5322 238° Southwest 362 417 36,000  Level Houston Center
07:46PM 31.1728 -92.6503 237° Southwest 362 417 36,000  Level Houston Center
07:47PM 31.1186 -92.7481 237° Southwest 360 414 36,000  Level Houston Center
07:48PM 31.0633 -92.8458 237° Southwest 360 414 36,000  Level Houston Center
07:49PM 31.0078 -92.9439 237° Southwest 362 417 36,000  Level Houston Center
07:50PM 30.9542 -93.0408 237° Southwest 357 411 36,000 -120 Level Houston Center
07:51PM 30.8986 -93.1389 237° Southwest 361 415 35,800 -1,140 Descending Houston Center
07:52PM 30.8328 -93.2556 237° Southwest 361 415 33,700 -1,920 Descending Houston Center
07:53PM 30.7786 -93.3522 237° Southwest 358 412 31,900 -1,800 Descending Houston Center
07:54PM 30.7239 -93.4483 236° Southwest 359 413 30,100 -1,800 Descending Houston Center
07:55PM 30.6669 -93.5503 237° Southwest 373 429 28,200 -1,980 Descending Houston Center
07:56PM 30.6056 -93.6564 236° Southwest 393 452 26,100 -2,280 Descending Houston Center
07:57PM 30.5325 -93.7853 237° Southwest 404 465 23,600 -2,280 Descending Houston Center
07:58PM 30.4700 -93.8936 236° Southwest 407 468 21,400 -2,040 Descending Houston Center
07:59PM 30.4067 -94.0028 236° Southwest 413 475 19,400 -2,100 Descending Houston Center
08:00PM 30.3453 -94.1103 237° Southwest 404 465 17,100 -2,280 Descending Houston Center
08:01PM 30.2853 -94.2117 236° Southwest 386 444 14,800 -2,400 Descending Houston Center
08:01PM 30.2572 -94.2600 236° Southwest 376 433 13,900 -2,460 Descending Houston Center
08:02PM 30.2169 -94.3306 237° Southwest 374 430 12,300 -1,800 Descending Houston Center
08:02PM 30.2000 -94.3594 236° Southwest 371 427 12,100 -780 Descending Houston Center
08:03PM 30.1792 -94.4686 258° West 371 427 11,400 -1,080 Descending Houston Center
08:04PM 30.1647 -94.5572 259° West 368 423 10,200 -1,260 Descending Houston Center
08:05PM 30.1564 -94.6022 258° West 376 433 10,000 -240 Descending Houston Center
08:05PM 30.1442 -94.6756 259° West 375 432 10,000 -180 Level Houston Center
08:06PM 30.1278 -94.7778 260° West 322 371 9,700 -1,020 Descending Houston Center
08:07PM 30.1117 -94.8675 258° West 288 331 7,900 -1,800 Descending Houston Center
08:08PM 30.1064 -94.9786 267° West 288 331 6,100 -900 Descending Houston Center
08:09PM 30.1053 -95.0797 269° West 283 326 6,000 -60 Descending Houston Center
08:10PM 30.1064 -95.1600 271° West 283 326 6,000  Level Houston Center
08:11PM 30.1078 -95.2514 271° West 285 328 6,000  Level Houston Center
08:12PM 30.1072 -95.3428 270° West 286 329 6,000 -600 Level Houston Center
08:14PM 30.1067 -95.4336 270° West 286 329 4,800 -1,260 Descending Houston Center
08:15PM 30.0633 -95.4950 231° Southwest 256 295 3,500 -1,260 Descending Houston Center